Accueil
METAR-TAF:

METAR-TAF

Aéroports :

Aéroport international de Cambridge

Cambridge, Angleterre

latitude: 52-12N, longitude: 000-11E, altitude: 15 m

Observation

Le bulletin a été fait il y a 4 heures et 45 minutes, à 17:50 UTC
Vent 13 kt de sud/sud-ouest, variant entre sud et sud-ouest
Température 13°C
Humidité 62%
Pression 997 hPa
Visibilité 10 km ou plus
Quelques nuages à une hauteur de 1800 ft

METAR: EGSC 221750Z 20013KT 170V230 9999 FEW018 13/06 Q0997

Heure: 22:35 (22:35 UTC)

Prévision

Le bulletin a été fait il y a 8 heures et 35 minutes, à 14:00 UTC
Prévision valable du 22 à 15 UTC au 22 à 18 UTC
Vent 12 kt de sud-ouest
Visibilité 10 km ou plus
Nuages épars à une hauteur de 4000 ft
Probabilité 30% :
Temporairement
du 22 à 15 UTC au 22 à 18 UTC
Vent 15 kt de sud-ouest avec des rafales jusqu'à 25 kt

TAF: EGSC 221400Z 2215/2218 22012KT 9999 SCT040 PROB30 TEMPO 2215/2218 23015G25KT

Observations et prévisions météorologiques de plus de 4000 aéroports (messages METAR et TAF).

Les stations disponibles sont représentées par des disques jaunes et rouges sur la carte.

Passer la souris dessus pour voir le nom de la station.

Cliquer dessus pour voir les observations et prévisions météorologiques.

Pour changer de carte: cliquez sur les boutons verts avec une croix noire pour zoomer, sur le bouton vert avec un tiret pour effectuer un zoom arrière, ou sur les flèches vertes pour les cartes adjacentes.


METAR-TAF: